This is the latest recevied weather packets stored in our database for station/object WX4SGA. If no packets are shown the sender has not sent any weather packets the latest 10 day(s).
| Time | Temp. | Humidity | Pressure | Rain* | Wind** | Luminosity | Snow |
|---|---|---|---|---|---|---|---|
| 1777477666 | 27.22° C | 62% | 1014.9 hPa | 0 mm | - | 703 W/m² | - |
| 1777477363 | 26.67° C | 63% | 1014.9 hPa | 0 mm | - | 738 W/m² | - |
| 1777477059 | 26.67° C | 65% | 1014.9 hPa | 0 mm | - | 729 W/m² | - |
| 1777476757 | 26.67° C | 63% | 1014.9 hPa | 0 mm | - | 656 W/m² | - |
| 1777476453 | 26.67° C | 65% | 1015.2 hPa | 0 mm | - | 690 W/m² | - |
| 1777476150 | 25.56° C | 68% | 1015.2 hPa | 0 mm | - | 671 W/m² | - |
| 1777475846 | 26.11° C | 66% | 1015.2 hPa | 0 mm | - | 645 W/m² | - |
| 1777475542 | 25.56° C | 66% | 1015.2 hPa | 0 mm | - | 652 W/m² | - |
| 1777475239 | 25° C | 68% | 1015.6 hPa | 0 mm | - | 624 W/m² | - |
| 1777474934 | 24.44° C | 70% | 1015.6 hPa | 0 mm | - | 472 W/m² | - |
| 1777474630 | 23.89° C | 73% | 1015.6 hPa | 0 mm | - | 264 W/m² | - |
| 1777474327 | 25° C | 71% | 1015.6 hPa | 0 mm | - | 406 W/m² | - |
| 1777474023 | 23.89° C | 73% | 1015.6 hPa | 0 mm | - | 411 W/m² | - |
| 1777473722 | 23.89° C | 73% | 1015.6 hPa | 0 mm | - | 266 W/m² | - |
| 1777473417 | 23.89° C | 73% | 1015.6 hPa | 0 mm | - | 228 W/m² | - |
| 1777473113 | 23.89° C | 74% | 1015.6 hPa | 0 mm | - | 231 W/m² | - |
| 1777472810 | 23.89° C | 74% | 1015.6 hPa | 0 mm | - | 221 W/m² | - |
| 1777472507 | 23.33° C | 74% | 1015.2 hPa | 0 mm | - | 237 W/m² | - |
| 1777472204 | 23.33° C | 75% | 1015.2 hPa | 0 mm | - | 256 W/m² | - |
| 1777471899 | 23.33° C | 76% | 1015.2 hPa | 0 mm | - | 254 W/m² | - |
| 1777471596 | 23.33° C | 75% | 1015.2 hPa | 0 mm | - | 314 W/m² | - |
| 1777471287 | 22.78° C | 77% | 1015.2 hPa | 0 mm | - | 326 W/m² | - |
| 1777470983 | 22.22° C | 79% | 1015.2 hPa | 0 mm | - | 325 W/m² | - |
| 1777470681 | 21.67° C | 81% | 1015.6 hPa | 0 mm | - | 233 W/m² | - |
| 1777470375 | 21.11° C | 83% | 1015.6 hPa | 0 mm | - | 207 W/m² | - |
* Rain latest hour (hover to see other rain measurements)
** Current wind speed in m/s (hover to see current wind gust speed)